Linwood, MI (48634)

1:52 PM EST on March 04, 2015 (GMT -0500)
APRSWXNET Linwood MI US | Change Station
CLOSE
Current Station
Personal Weather Station
Location: Linwood, MI
Elevation: 620 ft
Nearby Weather Stations

Elev 620 ft 43.74 °N, 83.96 °W | Updated 40 minutes ago

Partly Cloudy
Partly Cloudy
27 °F
Feels Like 19 °F
N
8
Wind Variable Wind from West
Gusts 20.0 mph

Today
High -- | Low -- °F
--% Chance of Precip.
Yesterday
High -- | Low -- °F
Precip. -- in
7:08 AM 6:28 PM
Waxing Gibbous, 99% visible
Pressure 29.95 in
Visibility 10.0 miles
Clouds Scattered Clouds 4400 ft
Windchill 19 °F
Dew Point 13 °F
Humidity 54%
Rainfall 0.00 in
Snow Depth Not available.
UV 4 out of 12
Pollen .40 out of 12
Air Quality Not available.
Flu Activity Not available.
METAR KIKW 041833Z AUTO 28012G19KT 10SM SCT044 M02/M13 A2995 RMK AO2 T10221126

More Conditions Fewer Conditions

Pressure 29.95 in
Visibility 10.0 miles
Clouds Scattered Clouds 4400 ft
Windchill 19 °F
Dew Point 13 °F
Humidity 54%
Rainfall 0.00 in
Snow Depth Not available.
UV 4 out of 12
Pollen .40 out of 12
Air Quality Not available.
Flu Activity Not available.
METAR KIKW 041833Z AUTO 28012G19KT 10SM SCT044 M02/M13 A2995 RMK AO2 T10221126

More Conditions Fewer Conditions

10-Day Weather Forecast

Almanac

Astronomy

Mar. 04, 2015 Rise Set
Actual Time
Civil Twilight
Nautical Twilight
Astronomical Twilight
Moon
Length of Visible Light
Length of Day
Tomorrow will be .
, % of the Moon is Illuminated

Today's Extremes

State Highs State Lows

Community

WunderPhotos

Upload Photos

1,802,536 photos uploaded!

WunderBlogs® & News

Nearby

Air Quality

  Air Quality AQ Index Pollutant
Not available.

Snow Depth

Station Depth Elevation

Earthquake Activity

City Distance Mag. Time & Date
Minimum magnitude displayed is 2.5.

Coastal Water Temperatures

Place Temperature

Nearby Weather Stations